createdAt,value
2022-09-06T00:00:58.861Z,101419.66
2022-09-06T00:03:27.611Z,101428.88
2022-09-06T00:05:54.270Z,101435.09
2022-09-06T00:08:20.795Z,101436.53
2022-09-06T00:10:47.323Z,101429.09
2022-09-06T00:13:14.675Z,101441.50
2022-09-06T00:15:43.808Z,101436.69
2022-09-06T00:18:10.245Z,101435.50
2022-09-06T00:20:41.293Z,101443.41
2022-09-06T00:23:08.423Z,101463.09
2022-09-06T00:25:35.729Z,101470.66
2022-09-06T00:28:04.627Z,101467.72
2022-09-06T00:30:32.699Z,101499.25
2022-09-06T00:32:59.242Z,101496.53
2022-09-06T00:35:26.871Z,101518.34
2022-09-06T00:38:01.516Z,101505.25
2022-09-06T00:40:30.203Z,101512.06
2022-09-06T00:42:58.284Z,101492.19
2022-09-06T00:45:28.017Z,101496.31
2022-09-06T00:47:55.205Z,101490.66
2022-09-06T00:50:22.042Z,101487.69
2022-09-06T00:52:51.213Z,101484.44
2022-09-06T00:55:18.305Z,101471.03
2022-09-06T00:57:46.500Z,101474.25
2022-09-06T01:00:13.459Z,101473.13
2022-09-06T01:02:40.203Z,101469.13
2022-09-06T01:05:07.154Z,101460.66
2022-09-06T01:07:51.502Z,101457.25
2022-09-06T01:10:36.044Z,101451.97
2022-09-06T01:13:26.832Z,101457.28
2022-09-06T01:16:31.132Z,101445.00
2022-09-06T01:19:09.740Z,101426.88
2022-09-06T01:22:13.842Z,101418.38
2022-09-06T01:24:50.684Z,101415.56
2022-09-06T01:27:20.081Z,101409.06
2022-09-06T01:30:02.197Z,101423.94
2022-09-06T01:32:35.630Z,101422.28
2022-09-06T01:35:18.090Z,101419.44
2022-09-06T01:37:44.954Z,101415.72
2022-09-06T01:40:11.795Z,101403.72
2022-09-06T01:42:41.627Z,101407.97
2022-09-06T01:45:16.078Z,101405.97
2022-09-06T01:48:14.154Z,101395.38
2022-09-06T01:50:57.826Z,101395.00
2022-09-06T01:53:33.522Z,101386.06
2022-09-06T01:56:10.171Z,101381.47
2022-09-06T01:58:49.585Z,101378.91
2022-09-06T02:01:30.042Z,101368.91
2022-09-06T02:04:20.410Z,101373.84
2022-09-06T02:06:52.551Z,101375.13
2022-09-06T02:09:23.040Z,101375.13
2022-09-06T02:11:54.876Z,101366.22
2022-09-06T02:14:30.308Z,101362.53
2022-09-06T02:16:59.158Z,101365.84
2022-09-06T02:19:56.703Z,101370.44
2022-09-06T02:22:27.798Z,101368.31
2022-09-06T02:24:56.768Z,101381.00
2022-09-06T02:27:23.290Z,101377.09
2022-09-06T02:29:50.062Z,101377.94
2022-09-06T02:32:21.914Z,101382.75
2022-09-06T02:34:54.051Z,101379.81
2022-09-06T02:37:22.798Z,101386.66
2022-09-06T02:39:49.260Z,101399.25
2022-09-06T02:42:17.761Z,101406.66
2022-09-06T02:44:44.220Z,101403.47
2022-09-06T02:47:10.620Z,101405.13
2022-09-06T02:49:37.019Z,101402.59
2022-09-06T02:52:03.598Z,101407.34
2022-09-06T02:54:31.263Z,101410.84
2022-09-06T02:56:57.658Z,101421.81
2022-09-06T02:59:24.188Z,101420.03
2022-09-06T03:01:50.606Z,101416.00
2022-09-06T03:04:17.002Z,101421.97
2022-09-06T03:06:43.482Z,101415.16
2022-09-06T03:09:10.438Z,101405.41
2022-09-06T03:11:38.068Z,101407.03
2022-09-06T03:14:05.026Z,101408.69
2022-09-06T03:16:31.593Z,101407.63
2022-09-06T03:18:58.027Z,101413.41
2022-09-06T03:21:24.758Z,101415.44
2022-09-06T03:23:51.319Z,101407.22
2022-09-06T03:26:17.769Z,101411.81
2022-09-06T03:28:44.181Z,101414.03
2022-09-06T03:31:10.963Z,101415.94
2022-09-06T03:33:37.551Z,101411.94
2022-09-06T03:36:04.375Z,101430.16
2022-09-06T03:38:31.324Z,101432.31
2022-09-06T03:40:58.381Z,101443.50
2022-09-06T03:43:26.525Z,101453.34
2022-09-06T03:45:55.667Z,101453.59
2022-09-06T03:48:24.268Z,101462.97
2022-09-06T03:50:53.149Z,101473.19
2022-09-06T03:53:20.614Z,101494.03
2022-09-06T03:55:48.790Z,101492.84
2022-09-06T03:58:16.924Z,101506.13
2022-09-06T04:00:43.610Z,101497.78
2022-09-06T04:03:10.405Z,101494.47
2022-09-06T04:05:37.077Z,101489.44
2022-09-06T04:08:04.005Z,101498.97
2022-09-06T04:10:30.439Z,101488.63
2022-09-06T04:12:56.852Z,101483.88
2022-09-06T04:15:23.314Z,101476.34
2022-09-06T04:17:49.764Z,101470.94
2022-09-06T04:20:17.378Z,101469.53
2022-09-06T04:22:44.049Z,101471.72
2022-09-06T04:25:10.996Z,101475.22
2022-09-06T04:27:38.141Z,101475.22
2022-09-06T04:30:05.013Z,101478.16
2022-09-06T04:32:32.687Z,101473.38
2022-09-06T04:34:59.233Z,101479.00
2022-09-06T04:37:25.661Z,101481.00
2022-09-06T04:39:52.302Z,101473.97
2022-09-06T04:42:18.835Z,101464.41
2022-09-06T04:44:45.244Z,101459.34
2022-09-06T04:47:15.935Z,101458.72
2022-09-06T04:49:42.635Z,101456.97
2022-09-06T04:52:09.362Z,101460.50
2022-09-06T04:54:35.987Z,101451.56
2022-09-06T04:57:02.878Z,101449.31
2022-09-06T04:59:29.610Z,101434.88
2022-09-06T05:01:56.275Z,101442.41
2022-09-06T05:04:22.798Z,101430.91
2022-09-06T05:06:49.333Z,101414.69
2022-09-06T05:09:15.992Z,101420.03
2022-09-06T05:11:42.442Z,101413.59
2022-09-06T05:14:08.868Z,101393.00
2022-09-06T05:16:35.381Z,101394.69
2022-09-06T05:19:01.955Z,101397.66
2022-09-06T05:21:28.364Z,101403.91
2022-09-06T05:23:58.490Z,101406.38
2022-09-06T05:26:25.429Z,101410.53
2022-09-06T05:28:51.868Z,101412.16
2022-09-06T05:31:29.520Z,101379.06
2022-09-06T05:33:57.606Z,101395.25
2022-09-06T05:36:25.474Z,101380.34
2022-09-06T05:38:53.258Z,101394.81
2022-09-06T05:41:20.046Z,101387.75
2022-09-06T05:43:46.637Z,101387.50
2022-09-06T05:46:13.708Z,101379.41
2022-09-06T05:48:40.196Z,101384.75
2022-09-06T05:51:09.364Z,101386.63
2022-09-06T05:53:36.857Z,101394.66
2022-09-06T05:56:04.713Z,101390.03
2022-09-06T05:58:31.421Z,101394.31
2022-09-06T06:01:17.454Z,101400.31
2022-09-06T06:03:51.051Z,101395.06
2022-09-06T06:06:17.745Z,101394.44
2022-09-06T06:08:45.448Z,101398.34
2022-09-06T06:11:12.398Z,101388.22
2022-09-06T06:13:39.746Z,101398.63
2022-09-06T06:16:08.165Z,101401.22
2022-09-06T06:18:34.953Z,101396.41
2022-09-06T06:21:15.382Z,101395.69
2022-09-06T06:23:44.224Z,101397.44
2022-09-06T06:26:12.220Z,101389.09
2022-09-06T06:28:39.665Z,101389.00
2022-09-06T06:31:08.754Z,101351.47
2022-09-06T06:33:36.372Z,101370.06
2022-09-06T06:36:13.368Z,101356.44
2022-09-06T06:38:43.643Z,101364.06
2022-09-06T06:41:13.020Z,101361.00
2022-09-06T06:43:39.911Z,101358.56
2022-09-06T06:46:17.476Z,101354.63
2022-09-06T06:48:45.524Z,101356.25
2022-09-06T06:51:17.426Z,101355.41
2022-09-06T06:53:49.030Z,101346.78
2022-09-06T06:56:28.272Z,101340.66
2022-09-06T06:58:57.625Z,101358.84
2022-09-06T07:01:26.279Z,101345.28
2022-09-06T07:03:53.178Z,101354.19
2022-09-06T07:06:20.358Z,101347.53
2022-09-06T07:08:47.491Z,101345.28
2022-09-06T07:11:15.814Z,101346.44
2022-09-06T07:13:42.375Z,101356.19
2022-09-06T07:16:20.394Z,101361.81
2022-09-06T07:18:47.801Z,101357.47
2022-09-06T07:24:06.079Z,101355.25
2022-09-06T07:26:34.640Z,101353.53
2022-09-06T07:29:04.927Z,101352.13
2022-09-06T07:34:20.451Z,101346.69
2022-09-06T07:36:47.129Z,101343.97
2022-09-06T07:39:14.181Z,101339.16
2022-09-06T07:41:40.647Z,101329.91
2022-09-06T07:44:07.178Z,101332.22
2022-09-06T07:46:33.705Z,101328.31
2022-09-06T07:49:00.174Z,101329.28
2022-09-06T07:51:26.601Z,101333.47
2022-09-06T07:54:12.895Z,101328.53
2022-09-06T07:56:41.930Z,101332.19
2022-09-06T07:59:09.255Z,101331.56
2022-09-06T08:01:39.943Z,101329.78
2022-09-06T08:04:09.112Z,101324.31
2022-09-06T08:09:25.100Z,101327.63
2022-09-06T08:11:52.724Z,101336.78
2022-09-06T08:14:19.901Z,101331.31
2022-09-06T08:16:46.507Z,101340.00
2022-09-06T08:19:12.974Z,101332.03
2022-09-06T08:21:39.507Z,101348.72
2022-09-06T08:24:07.797Z,101362.38
2022-09-06T08:26:36.369Z,101338.66
2022-09-06T08:29:06.833Z,101349.13
2022-09-06T08:31:35.372Z,101364.22
2022-09-06T08:34:02.440Z,101365.06
2022-09-06T08:36:30.586Z,101356.38
2022-09-06T08:39:02.643Z,101351.34
2022-09-06T08:41:38.276Z,101358.47
2022-09-06T08:47:18.686Z,101334.53
2022-09-06T08:49:47.834Z,101348.22
2022-09-06T08:52:32.941Z,101325.78
2022-09-06T08:55:40.462Z,101334.09
2022-09-06T08:58:22.291Z,101345.38
2022-09-06T09:00:58.475Z,101337.19
2022-09-06T09:03:33.271Z,101341.50
2022-09-06T09:06:01.629Z,101336.44
2022-09-06T09:09:04.316Z,101325.22
2022-09-06T09:11:33.494Z,101317.59
2022-09-06T09:14:16.074Z,101315.94
2022-09-06T09:16:43.170Z,101316.91
2022-09-06T09:19:09.821Z,101323.16
2022-09-06T09:21:40.077Z,101332.25
2022-09-06T09:24:12.317Z,101327.69
2022-09-06T09:27:13.363Z,101335.03
2022-09-06T09:32:49.514Z,101336.88
2022-09-06T09:35:20.398Z,101337.75
2022-09-06T09:37:48.701Z,101342.94
2022-09-06T09:40:26.005Z,101336.94
2022-09-06T09:42:54.819Z,101344.59
2022-09-06T09:45:22.556Z,101343.44
2022-09-06T09:47:49.049Z,101354.38
2022-09-06T09:50:34.583Z,101339.66
2022-09-06T09:53:10.895Z,101348.25
2022-09-06T09:55:38.487Z,101349.41
2022-09-06T09:58:06.509Z,101348.94
2022-09-06T10:00:35.499Z,101354.41
2022-09-06T10:03:18.990Z,101340.44
2022-09-06T10:06:02.236Z,101363.88
2022-09-06T10:08:32.763Z,101357.00
2022-09-06T10:10:59.429Z,101363.03
2022-09-06T10:13:30.862Z,101359.78
2022-09-06T10:15:59.590Z,101343.75
2022-09-06T10:18:31.024Z,101356.59
2022-09-06T10:21:05.407Z,101356.78
2022-09-06T10:26:55.707Z,101348.59
2022-09-06T10:29:48.035Z,101362.25
2022-09-06T10:32:39.389Z,101365.31
2022-09-06T10:35:09.449Z,101369.44
2022-09-06T10:37:54.745Z,101366.72
2022-09-06T10:40:32.013Z,101374.63
2022-09-06T10:43:01.511Z,101361.25
2022-09-06T10:45:29.762Z,101382.78
2022-09-06T10:48:16.233Z,101380.59
2022-09-06T10:51:03.981Z,101372.38
2022-09-06T10:53:46.310Z,101389.81
2022-09-06T10:56:18.911Z,101384.13
2022-09-06T11:01:57.149Z,101406.25
2022-09-06T11:04:31.105Z,101414.47
2022-09-06T11:07:02.430Z,101400.28
2022-09-06T11:09:55.107Z,101410.59
2022-09-06T11:12:33.798Z,101407.84
2022-09-06T11:15:05.863Z,101406.75
2022-09-06T11:17:54.554Z,101403.69
2022-09-06T11:20:44.949Z,101395.78
2022-09-06T11:23:33.225Z,101401.53
2022-09-06T11:26:26.968Z,101403.47
2022-09-06T11:29:03.114Z,101411.66
2022-09-06T11:34:35.188Z,101416.00
2022-09-06T11:37:04.606Z,101404.56
2022-09-06T11:42:45.925Z,101427.16
2022-09-06T11:45:17.943Z,101420.34
2022-09-06T11:47:48.168Z,101430.69
2022-09-06T11:50:20.894Z,101431.75
2022-09-06T11:53:06.089Z,101434.25
2022-09-06T11:55:39.259Z,101430.94
2022-09-06T11:58:12.318Z,101436.13
2022-09-06T12:00:38.731Z,101428.25
2022-09-06T12:06:17.664Z,101429.06
2022-09-06T12:08:44.608Z,101425.78
2022-09-06T12:11:30.568Z,101439.44
2022-09-06T12:14:03.812Z,101437.25
2022-09-06T12:17:01.946Z,101434.81
2022-09-06T12:19:48.899Z,101431.03
2022-09-06T12:22:27.418Z,101423.09
2022-09-06T12:24:56.803Z,101415.19
2022-09-06T12:27:26.863Z,101402.13
2022-09-06T12:29:59.312Z,101413.31
2022-09-06T12:32:34.909Z,101391.47
2022-09-06T12:38:01.109Z,101386.84
2022-09-06T12:40:31.947Z,101383.28
2022-09-06T12:42:58.915Z,101376.72
2022-09-06T12:45:27.540Z,101374.78
2022-09-06T12:48:10.595Z,101375.06
2022-09-06T12:50:38.306Z,101373.44
2022-09-06T12:53:23.628Z,101360.88
2022-09-06T12:56:02.997Z,101371.25
2022-09-06T12:58:30.752Z,101384.63
2022-09-06T13:01:04.070Z,101370.97
2022-09-06T13:03:53.955Z,101382.47
2022-09-06T13:06:26.821Z,101372.38
2022-09-06T13:08:57.123Z,101373.44
2022-09-06T13:11:30.771Z,101337.72
2022-09-06T13:13:57.946Z,101373.72
2022-09-06T13:16:27.832Z,101375.09
2022-09-06T13:18:54.610Z,101373.44
2022-09-06T13:21:32.881Z,101375.13
2022-09-06T13:24:03.882Z,101377.00
2022-09-06T13:26:40.136Z,101372.94
2022-09-06T13:29:23.320Z,101357.66
2022-09-06T13:31:52.401Z,101367.22
2022-09-06T13:34:26.161Z,101373.22
2022-09-06T13:36:55.869Z,101368.03
2022-09-06T13:39:39.667Z,101358.50
2022-09-06T13:42:07.556Z,101368.03
2022-09-06T13:44:36.826Z,101367.50
2022-09-06T13:47:03.761Z,101368.59
2022-09-06T13:49:31.263Z,101358.75
2022-09-06T13:52:00.408Z,101343.19
2022-09-06T13:54:27.027Z,101369.41
2022-09-06T13:56:53.875Z,101369.13
2022-09-06T13:59:20.427Z,101372.44
2022-09-06T14:01:49.849Z,101348.94
2022-09-06T14:04:21.355Z,101357.13
2022-09-06T14:06:48.887Z,101356.59
2022-09-06T14:09:15.529Z,101365.28
2022-09-06T14:11:47.514Z,101363.13
2022-09-06T14:14:15.047Z,101354.09
2022-09-06T14:16:41.516Z,101347.31
2022-09-06T14:19:07.971Z,101347.28
2022-09-06T14:21:34.740Z,101340.72
2022-09-06T14:24:04.367Z,101324.34
2022-09-06T14:26:32.058Z,101332.00
2022-09-06T14:28:58.513Z,101332.53
2022-09-06T14:31:27.869Z,101338.00
2022-09-06T14:33:55.958Z,101342.38
2022-09-06T14:36:24.854Z,101332.00
2022-09-06T14:38:51.578Z,101341.84
2022-09-06T14:41:19.705Z,101332.59
2022-09-06T14:43:53.160Z,101333.13
2022-09-06T14:46:22.094Z,101333.66
2022-09-06T14:48:49.323Z,101329.28
2022-09-06T14:51:22.538Z,101325.22
2022-09-06T14:53:53.258Z,101333.13
2022-09-06T14:56:20.909Z,101328.47
2022-09-06T14:58:47.445Z,101319.47
2022-09-06T15:01:15.154Z,101320.00
2022-09-06T15:03:46.714Z,101313.44
2022-09-06T15:06:13.336Z,101314.28
2022-09-06T15:08:39.786Z,101320.28
2022-09-06T15:11:08.347Z,101310.16
2022-09-06T15:13:40.383Z,101311.28
2022-09-06T15:16:08.660Z,101314.28
2022-09-06T15:18:35.325Z,101317.53
2022-09-06T15:21:10.246Z,101306.31
2022-09-06T15:23:37.185Z,101291.56
2022-09-06T15:26:07.252Z,101293.72
2022-09-06T15:28:38.875Z,101288.53
2022-09-06T15:31:06.547Z,101271.91
2022-09-06T15:33:35.546Z,101282.81
2022-09-06T15:36:08.501Z,101278.44
2022-09-06T15:38:44.023Z,101266.72
2022-09-06T15:41:12.894Z,101276.59
2022-09-06T15:43:42.286Z,101276.03
2022-09-06T15:46:09.916Z,101275.75
2022-09-06T15:48:45.894Z,101248.22
2022-09-06T15:51:15.960Z,101269.19
2022-09-06T15:53:42.629Z,101259.41
2022-09-06T15:56:12.577Z,101222.06
2022-09-06T15:58:39.509Z,101239.50
2022-09-06T16:01:11.637Z,101235.41
2022-09-06T16:03:42.007Z,101244.69
2022-09-06T16:06:29.357Z,101233.50
2022-09-06T16:09:00.016Z,101252.38
2022-09-06T16:11:28.315Z,101255.59
2022-09-06T16:13:55.500Z,101259.44
2022-09-06T16:16:22.774Z,101252.34
2022-09-06T16:18:49.557Z,101243.06
2022-09-06T16:21:23.799Z,101239.50
2022-09-06T16:23:53.450Z,101261.88
2022-09-06T16:26:21.658Z,101252.34
2022-09-06T16:28:50.031Z,101243.63
2022-09-06T16:31:17.348Z,101241.69
2022-09-06T16:33:45.516Z,101244.97
2022-09-06T16:36:12.978Z,101248.81
2022-09-06T16:38:40.999Z,101252.34
2022-09-06T16:41:18.294Z,101264.94
2022-09-06T16:43:45.808Z,101257.56
2022-09-06T16:46:12.770Z,101259.47
2022-09-06T16:48:42.003Z,101257.81
2022-09-06T16:51:15.764Z,101252.66
2022-09-06T16:53:44.636Z,101230.84
2022-09-06T16:56:14.634Z,101239.56
2022-09-06T16:58:41.942Z,101244.75
2022-09-06T17:01:09.985Z,101233.84
2022-09-06T17:03:37.837Z,101222.66
2022-09-06T17:06:05.356Z,101241.19
2022-09-06T17:08:32.433Z,101245.84
2022-09-06T17:11:06.786Z,101227.03
2022-09-06T17:13:33.658Z,101240.94
2022-09-06T17:16:22.175Z,101247.19
2022-09-06T17:18:50.123Z,101250.19
2022-09-06T17:21:16.684Z,101253.75
2022-09-06T17:23:43.564Z,101249.66
2022-09-06T17:26:10.038Z,101243.13
2022-09-06T17:28:38.286Z,101235.41
2022-09-06T17:31:05.537Z,101249.09
2022-09-06T17:33:32.315Z,101245.53
2022-09-06T17:36:17.004Z,101250.69
2022-09-06T17:38:44.647Z,101233.78
2022-09-06T17:41:31.008Z,101225.88
2022-09-06T17:43:58.685Z,101221.50
2022-09-06T17:46:28.875Z,101217.69
2022-09-06T17:48:56.279Z,101223.41
2022-09-06T17:51:24.301Z,101234.31
2022-09-06T17:53:52.148Z,101243.31
2022-09-06T17:56:19.552Z,101248.22
2022-09-06T17:58:55.187Z,101223.91
2022-09-06T18:01:23.743Z,101241.06
2022-09-06T18:03:50.290Z,101248.41
2022-09-06T18:06:20.072Z,101250.59
2022-09-06T18:08:50.402Z,101236.38
2022-09-06T18:11:28.937Z,101223.00
2022-09-06T18:14:04.693Z,101222.16
2022-09-06T18:16:32.587Z,101231.19
2022-09-06T18:19:01.384Z,101236.06
2022-09-06T18:21:30.921Z,101244.44
2022-09-06T18:23:57.811Z,101234.59
2022-09-06T18:26:25.140Z,101236.75
2022-09-06T18:28:53.410Z,101239.44
2022-09-06T18:31:22.376Z,101242.41
2022-09-06T18:33:48.948Z,101246.22
2022-09-06T18:36:16.593Z,101243.78
2022-09-06T18:38:43.457Z,101242.69
2022-09-06T18:41:34.596Z,101228.50
2022-09-06T18:44:02.896Z,101236.72
2022-09-06T18:46:34.241Z,101240.78
2022-09-06T18:49:01.040Z,101242.13
2022-09-06T18:51:28.127Z,101238.00
2022-09-06T18:53:56.945Z,101240.97
2022-09-06T18:56:24.054Z,101237.94
2022-09-06T18:58:53.435Z,101225.38
2022-09-06T19:01:20.968Z,101219.38
2022-09-06T19:03:47.493Z,101211.41
2022-09-06T19:06:19.836Z,101205.44
2022-09-06T19:08:46.942Z,101207.34
2022-09-06T19:11:16.961Z,101186.34
2022-09-06T19:13:45.427Z,101186.09
2022-09-06T19:16:13.801Z,101188.03
2022-09-06T19:18:41.386Z,101180.97
2022-09-06T19:21:13.828Z,101177.41
2022-09-06T19:23:42.271Z,101164.09
2022-09-06T19:26:19.801Z,101166.28
2022-09-06T19:28:54.779Z,101173.59
2022-09-06T19:31:22.307Z,101177.41
2022-09-06T19:33:50.106Z,101177.72
2022-09-06T19:36:18.428Z,101170.13
2022-09-06T19:41:34.262Z,101143.13
2022-09-06T19:44:01.605Z,101156.28
2022-09-06T19:46:28.504Z,101159.00
2022-09-06T19:48:58.846Z,101148.91
2022-09-06T19:51:25.455Z,101141.28
2022-09-06T19:53:53.766Z,101151.94
2022-09-06T19:56:22.700Z,101155.47
2022-09-06T19:58:57.231Z,101128.78
2022-09-06T20:01:25.806Z,101145.69
2022-09-06T20:03:53.041Z,101154.94
2022-09-06T20:06:19.891Z,101162.31
2022-09-06T20:08:50.717Z,101154.16
2022-09-06T20:11:18.195Z,101130.19
2022-09-06T20:13:44.889Z,101116.84
2022-09-06T20:16:12.924Z,101127.75
2022-09-06T20:18:40.233Z,101127.97
2022-09-06T20:21:07.820Z,101136.38
2022-09-06T20:23:35.428Z,101128.16
2022-09-06T20:26:05.655Z,101115.09
2022-09-06T20:28:47.327Z,101108.84
2022-09-06T20:31:25.367Z,101094.38
2022-09-06T20:38:46.853Z,101076.91
2022-09-06T20:41:17.777Z,101065.16
2022-09-06T20:43:44.894Z,101080.44
2022-09-06T20:46:14.592Z,101072.28
2022-09-06T20:48:44.708Z,101092.13
2022-09-06T20:51:15.602Z,101109.78
2022-09-06T20:53:42.371Z,101146.44
2022-09-06T20:56:14.765Z,101163.31
2022-09-06T20:58:42.017Z,101163.81
2022-09-06T21:01:10.907Z,101172.97
2022-09-06T21:03:39.652Z,101159.09
2022-09-06T21:06:10.557Z,101156.28
2022-09-06T21:08:41.853Z,101122.69
2022-09-06T21:11:09.785Z,101099.97
2022-09-06T21:13:37.081Z,101080.44
2022-09-06T21:16:05.803Z,101097.31
2022-09-06T21:18:33.394Z,101118.63
2022-09-06T21:21:01.159Z,101104.56
2022-09-06T21:23:30.105Z,101112.53
2022-09-06T21:26:02.531Z,101129.34
2022-09-06T21:28:31.191Z,101196.63
2022-09-06T21:31:14.330Z,101289.69
2022-09-06T21:33:55.101Z,101366.34
2022-09-06T21:36:24.217Z,101388.94
2022-09-06T21:38:55.387Z,101485.34
2022-09-06T21:41:22.868Z,101514.69
2022-09-06T21:43:54.081Z,101496.00
2022-09-06T21:46:22.136Z,101505.56
2022-09-06T21:48:50.511Z,101476.94
2022-09-06T21:51:20.855Z,101479.91
2022-09-06T21:53:49.644Z,101479.09
2022-09-06T21:56:19.508Z,101475.34
2022-09-06T21:58:49.953Z,101461.78
2022-09-06T22:01:16.475Z,101448.00
2022-09-06T22:03:42.960Z,101450.34
2022-09-06T22:06:11.465Z,101453.53
2022-09-06T22:08:38.768Z,101439.06
2022-09-06T22:11:11.491Z,101439.06
2022-09-06T22:13:38.044Z,101446.69
2022-09-06T22:16:07.883Z,101432.34
2022-09-06T22:18:35.338Z,101427.88
2022-09-06T22:21:10.710Z,101426.47
2022-09-06T22:23:38.552Z,101415.50
2022-09-06T22:26:09.423Z,101422.13
2022-09-06T22:28:36.882Z,101415.84
2022-09-06T22:31:04.042Z,101408.09
2022-09-06T22:33:30.725Z,101420.78
2022-09-06T22:35:59.631Z,101414.41
2022-09-06T22:38:27.084Z,101423.38
2022-09-06T22:40:57.242Z,101420.66
2022-09-06T22:43:24.619Z,101406.66
2022-09-06T22:45:52.118Z,101399.59
2022-09-06T22:48:19.385Z,101371.94
2022-09-06T22:50:46.403Z,101348.91
2022-09-06T22:53:12.788Z,101327.03
2022-09-06T22:55:39.282Z,101322.06
2022-09-06T22:58:05.867Z,101304.78
2022-09-06T23:00:36.002Z,101293.63
2022-09-06T23:03:03.637Z,101290.31
2022-09-06T23:05:33.416Z,101292.19
2022-09-06T23:08:01.664Z,101297.47
2022-09-06T23:10:29.781Z,101299.59
2022-09-06T23:12:57.286Z,101303.84
2022-09-06T23:15:23.722Z,101311.59
2022-09-06T23:17:50.202Z,101309.56
2022-09-06T23:20:17.155Z,101302.88
2022-09-06T23:22:43.636Z,101293.22
2022-09-06T23:25:10.393Z,101279.03
2022-09-06T23:27:36.850Z,101259.03
2022-09-06T23:30:04.314Z,101273.13
2022-09-06T23:32:31.942Z,101284.97
2022-09-06T23:34:58.393Z,101295.03
2022-09-06T23:37:24.881Z,101299.72
2022-09-06T23:39:52.377Z,101284.91
2022-09-06T23:42:19.427Z,101252.13
2022-09-06T23:44:45.875Z,101257.91
2022-09-06T23:47:12.337Z,101258.69
2022-09-06T23:49:38.889Z,101247.75
2022-09-06T23:52:05.678Z,101245.75
2022-09-06T23:54:32.128Z,101212.75
2022-09-06T23:56:58.671Z,101202.09
2022-09-06T23:59:25.138Z,101192.31
